Flight Track Log - Related Links

Times and Time Zones

All times are in EST time to prevent confusion due to time zone crossing. See the CDG4723 flight status page for this flight to view local times or setup timezone preferences in your user account.

Time Position Orientation Groundspeed Altitude Reporting Facility
EST Latitude Longitude Course Direction KTS MPH feet Rate Location/Type
Tue 11:54:00 PM 26.9302 118.0329 178° South  Level Estimated
Tue 11:55:00 PM 26.8530 118.0360 178° South  Level Estimated
Tue 11:56:00 PM 26.7759 118.0392 178° South  Level Estimated
Tue 11:57:00 PM 26.6987 118.0423 178° South  Level Estimated
Tue 11:58:00 PM 26.6215 118.0454 178° South  Level Estimated
Tue 11:59:00 PM 26.5443 118.0485 178° South  Level Estimated
Wed 12:00:00 AM 26.4672 118.0516 178° South  Level Estimated
Wed 12:01:00 AM 26.3900 118.0547 178° South  Level Estimated
Wed 12:02:00 AM 26.3128 118.0578 178° South  Level Estimated
Wed 12:03:00 AM 26.2356 118.0609 178° South  Level Estimated
Wed 12:04:00 AM 26.1584 118.0640 178° South  Level Estimated
Wed 12:05:00 AM 26.0813 118.0671 178° South  Level Estimated
Wed 12:06:00 AM 26.0041 118.0702 178° South  Level Estimated
Wed 12:07:00 AM 25.9269 118.0732 178° South  Level Estimated
Wed 12:08:00 AM 25.8497 118.0763 178° South  Level Estimated
Wed 12:09:00 AM 25.7725 118.0794 178° South  Level Estimated
Wed 12:10:00 AM 25.6954 118.0825 178° South  Level Estimated
Wed 12:11:00 AM 25.6182 118.0855 178° South  Level Estimated
Wed 12:12:00 AM 25.5410 118.0886 178° South  Level Estimated
Wed 12:13:00 AM 25.4638 118.0916 178° South  Level Estimated
Wed 12:14:00 AM 25.3866 118.0947 178° South  Level Estimated
Wed 12:15:00 AM 25.3095 118.0977 178° South  Level Estimated
Wed 12:16:00 AM 25.2323 118.1008 178° South  Level Estimated
Wed 12:17:00 AM 25.1551 118.1038 178° South  Level Estimated
Wed 12:18:00 AM 25.0779 118.1068 178° South  Level Estimated
Wed 12:19:00 AM 25.0007 118.1099 178° South  Level Estimated
Wed 12:20:00 AM 24.9236 118.1129 178° South  Level Estimated
Wed 12:21:00 AM 24.8464 118.1159 178° South  Level Estimated
Wed 12:22:00 AM 24.7692 118.1189 178° South  Level Estimated
Wed 12:23:00 AM 24.6920 118.1220 178° South  Level Estimated
Wed 12:24:00 AM 24.6148 118.1250 178° South  Level Estimated
Wed 12:25:00 AM 24.5440 118.1277 178° South  Level Estimated
Wed 12:26:00 AM 24.5440 118.1277 193° South  Level Estimated
Wed 12:27:00 AM 24.5440 118.1277 193° South  Level Estimated
Wed 12:28:00 AM 24.5440 118.1277 193° South  Level Estimated
Wed 12:29:00 AM 24.5440 118.1277 193° South  Level Estimated
Wed 12:30:00 AM 24.5440 118.1277 193° South  Level Estimated
Wed 12:31:00 AM 24.5440 118.1277 193° South  Level Estimated
Wed 12:32:00 AM 24.5440 118.1277 193° South  Level Estimated
Wed 12:33:00 AM 24.5440 118.1277 193° South  Level Estimated
Wed 12:34:00 AM 24.5440 118.1277 193° South  Level Estimated
Wed 12:35:00 AM 24.5440 118.1277 193° South  Level Estimated
Wed 12:36:00 AM 24.5440 118.1277 193° South  Level Estimated
Wed 12:37:00 AM 24.5440 118.1277 193° South  Level Estimated

Login

Don't have an account? Register now (free) for customized features, flight alerts, and more!